createdAt,value
2018-06-03T00:00:18.617Z,41.79
2018-06-03T00:01:18.549Z,40.25
2018-06-03T00:02:18.475Z,40.55
2018-06-03T00:03:18.401Z,41.50
2018-06-03T00:04:18.326Z,41.41
2018-06-03T00:05:18.269Z,40.06
2018-06-03T00:06:18.182Z,39.49
2018-06-03T00:07:18.107Z,39.78
2018-06-03T00:08:18.033Z,39.87
2018-06-03T00:09:17.962Z,42.56
2018-06-03T00:10:17.885Z,41.60
2018-06-03T00:11:17.818Z,39.29
2018-06-03T00:12:17.741Z,40.55
2018-06-03T00:13:17.671Z,39.58
2018-06-03T00:14:17.597Z,40.35
2018-06-03T00:15:17.528Z,37.66
2018-06-03T00:16:17.453Z,37.08
2018-06-03T00:17:17.397Z,39.39
2018-06-03T00:18:17.305Z,39.49
2018-06-03T00:19:17.233Z,38.14
2018-06-03T00:20:17.170Z,36.32
2018-06-03T00:21:17.086Z,40.35
2018-06-03T00:22:17.014Z,39.68
2018-06-03T00:23:16.957Z,41.12
2018-06-03T00:24:16.867Z,38.81
2018-06-03T00:25:16.796Z,38.91
2018-06-03T00:26:16.764Z,36.32
2018-06-03T00:27:16.648Z,38.84
2018-06-03T00:28:16.585Z,40.25
2018-06-03T00:29:16.507Z,42.76
2018-06-03T00:30:16.435Z,40.35
2018-06-03T00:31:16.357Z,38.81
2018-06-03T00:32:16.283Z,40.06
2018-06-03T00:33:16.209Z,40.64
2018-06-03T00:34:16.140Z,40.55
2018-06-03T00:35:16.063Z,40.25
2018-06-03T00:36:15.991Z,41.89
2018-06-03T00:37:15.930Z,39.58
2018-06-03T00:38:15.850Z,39.29
2018-06-03T00:39:15.771Z,37.76
2018-06-03T00:40:15.702Z,39.39
2018-06-03T00:41:15.628Z,38.81
2018-06-03T00:42:15.554Z,40.25
2018-06-03T00:43:15.479Z,41.50
2018-06-03T00:44:15.406Z,41.41
2018-06-03T00:45:15.336Z,40.64
2018-06-03T00:46:15.263Z,39.78
2018-06-03T00:47:15.192Z,39.87
2018-06-03T00:48:15.117Z,38.72
2018-06-03T00:49:15.047Z,38.62
2018-06-03T00:50:14.970Z,40.16
2018-06-03T00:51:14.905Z,39.29
2018-06-03T00:52:14.828Z,39.78
2018-06-03T00:53:14.750Z,38.81
2018-06-03T00:54:14.677Z,39.11
2018-06-03T00:55:14.602Z,39.01
2018-06-03T00:56:14.541Z,38.24
2018-06-03T00:57:14.461Z,40.45
2018-06-03T00:58:14.386Z,40.64
2018-06-03T00:59:14.310Z,39.87
2018-06-03T01:00:14.236Z,36.60
2018-06-03T01:01:14.164Z,38.81
2018-06-03T01:02:14.099Z,41.89
2018-06-03T01:03:14.019Z,40.35
2018-06-03T01:04:13.948Z,41.50
2018-06-03T01:05:13.870Z,39.49
2018-06-03T01:06:13.798Z,41.02
2018-06-03T01:07:13.726Z,40.35
2018-06-03T01:08:13.652Z,41.41
2018-06-03T01:09:13.581Z,38.04
2018-06-03T01:10:13.507Z,37.18
2018-06-03T01:11:13.432Z,39.87
2018-06-03T01:12:13.361Z,38.51
2018-06-03T01:13:13.290Z,35.83
2018-06-03T01:14:13.216Z,34.76
2018-06-03T01:15:13.140Z,36.30
2018-06-03T01:16:13.067Z,35.72
2018-06-03T01:17:12.994Z,35.82
2018-06-03T01:18:12.920Z,33.80
2018-06-03T01:19:12.846Z,36.11
2018-06-03T01:20:12.773Z,35.72
2018-06-03T01:21:12.720Z,33.99
2018-06-03T01:22:12.629Z,35.91
2018-06-03T01:23:12.552Z,37.35
2018-06-03T01:24:12.491Z,34.76
2018-06-03T01:25:12.406Z,34.19
2018-06-03T01:26:12.335Z,35.91
2018-06-03T01:27:12.265Z,35.72
2018-06-03T01:28:12.196Z,35.72
2018-06-03T01:29:12.113Z,34.76
2018-06-03T01:30:12.042Z,34.95
2018-06-03T01:31:11.968Z,35.05
2018-06-03T01:32:11.894Z,34.09
2018-06-03T01:33:11.819Z,34.95
2018-06-03T01:34:11.746Z,34.86
2018-06-03T01:35:11.672Z,32.93
2018-06-03T01:36:11.598Z,33.99
2018-06-03T01:37:11.526Z,35.51
2018-06-03T01:38:11.453Z,33.11
2018-06-03T01:39:11.380Z,33.11
2018-06-03T01:40:11.307Z,32.06
2018-06-03T01:41:11.234Z,30.71
2018-06-03T01:42:11.170Z,29.94
2018-06-03T01:43:11.082Z,31.10
2018-06-03T01:44:11.011Z,29.66
2018-06-03T01:45:10.957Z,29.56
2018-06-03T01:46:10.868Z,28.70
2018-06-03T01:47:10.789Z,28.79
2018-06-03T01:48:10.716Z,29.75
2018-06-03T01:49:10.667Z,27.73
2018-06-03T01:50:10.570Z,26.78
2018-06-03T01:51:10.496Z,27.72
2018-06-03T01:52:10.427Z,26.76
2018-06-03T01:53:10.349Z,26.30
2018-06-03T01:54:10.273Z,27.55
2018-06-03T01:55:10.197Z,25.90
2018-06-03T01:56:10.129Z,28.70
2018-06-03T01:57:10.053Z,28.20
2018-06-03T01:58:09.979Z,26.09
2018-06-03T01:59:09.905Z,29.93
2018-06-03T02:00:09.830Z,28.31
2018-06-03T02:01:09.767Z,27.36
2018-06-03T02:02:09.684Z,31.29
2018-06-03T02:03:09.614Z,31.38
2018-06-03T02:04:09.539Z,30.14
2018-06-03T02:05:09.462Z,32.82
2018-06-03T02:06:09.387Z,31.10
2018-06-03T02:07:09.315Z,32.15
2018-06-03T02:08:09.245Z,33.31
2018-06-03T02:09:09.166Z,32.06
2018-06-03T02:10:09.095Z,33.88
2018-06-03T02:11:09.018Z,33.98
2018-06-03T02:12:08.947Z,33.59
2018-06-03T02:13:08.876Z,33.31
2018-06-03T02:14:08.799Z,32.33
2018-06-03T02:15:08.723Z,32.82
2018-06-03T02:16:08.651Z,32.34
2018-06-03T02:17:08.578Z,31.48
2018-06-03T02:18:08.502Z,32.34
2018-06-03T02:19:08.433Z,34.17
2018-06-03T02:20:08.373Z,33.01
2018-06-03T02:21:08.282Z,32.06
2018-06-03T02:22:08.208Z,33.11
2018-06-03T02:23:08.134Z,33.11
2018-06-03T02:24:08.060Z,33.50
2018-06-03T02:25:07.987Z,32.82
2018-06-03T02:26:07.914Z,32.81
2018-06-03T02:27:07.839Z,35.42
2018-06-03T02:28:07.764Z,35.89
2018-06-03T02:29:07.690Z,36.18
2018-06-03T02:30:07.616Z,35.61
2018-06-03T02:31:07.543Z,35.80
2018-06-03T02:32:07.490Z,35.13
2018-06-03T02:33:07.396Z,34.94
2018-06-03T02:34:07.321Z,36.18
2018-06-03T02:35:07.246Z,35.99
2018-06-03T02:36:07.174Z,35.89
2018-06-03T02:37:07.115Z,35.80
2018-06-03T02:38:07.035Z,37.43
2018-06-03T02:39:06.969Z,35.51
2018-06-03T02:40:06.881Z,37.34
2018-06-03T02:41:06.806Z,38.87
2018-06-03T02:42:06.737Z,37.53
2018-06-03T02:43:06.659Z,37.82
2018-06-03T02:44:06.584Z,34.27
2018-06-03T02:45:06.507Z,37.91
2018-06-03T02:46:06.456Z,35.61
2018-06-03T02:47:06.363Z,34.07
2018-06-03T02:48:06.287Z,32.06
2018-06-03T02:49:06.215Z,35.32
2018-06-03T02:50:06.149Z,36.09
2018-06-03T02:51:06.068Z,33.11
2018-06-03T02:52:06.002Z,32.92
2018-06-03T02:53:05.953Z,36.09
2018-06-03T02:54:05.854Z,33.11
2018-06-03T02:55:05.878Z,34.36
2018-06-03T02:56:05.699Z,36.57
2018-06-03T02:57:05.630Z,37.34
2018-06-03T02:58:05.549Z,38.29
2018-06-03T02:59:05.477Z,38.68
2018-06-03T03:00:05.404Z,37.34
2018-06-03T03:01:05.349Z,37.34
2018-06-03T03:02:05.256Z,40.02
2018-06-03T03:03:05.179Z,37.34
2018-06-03T03:04:05.108Z,36.18
2018-06-03T03:05:05.034Z,37.82
2018-06-03T03:06:04.958Z,38.20
2018-06-03T03:07:04.905Z,35.80
2018-06-03T03:08:04.817Z,35.59
2018-06-03T03:09:04.737Z,36.57
2018-06-03T03:10:04.665Z,34.36
2018-06-03T03:11:04.592Z,35.78
2018-06-03T03:12:04.516Z,34.36
2018-06-03T03:13:04.445Z,34.63
2018-06-03T03:14:04.367Z,36.28
2018-06-03T03:15:04.294Z,35.88
2018-06-03T03:16:04.220Z,34.07
2018-06-03T03:17:04.145Z,34.55
2018-06-03T03:18:04.072Z,37.22
2018-06-03T03:19:03.998Z,37.15
2018-06-03T03:20:03.923Z,37.72
2018-06-03T03:21:03.853Z,36.26
2018-06-03T03:22:03.776Z,35.89
2018-06-03T03:23:03.702Z,35.61
2018-06-03T03:24:03.634Z,36.65
2018-06-03T03:25:03.565Z,35.71
2018-06-03T03:26:03.485Z,37.89
2018-06-03T03:27:03.407Z,36.38
2018-06-03T03:28:03.333Z,38.49
2018-06-03T03:29:03.259Z,36.57
2018-06-03T03:30:03.191Z,36.93
2018-06-03T03:31:03.112Z,38.29
2018-06-03T03:32:03.037Z,38.56
2018-06-03T03:33:02.963Z,36.66
2018-06-03T03:34:02.893Z,37.53
2018-06-03T03:35:02.816Z,38.01
2018-06-03T03:36:02.743Z,38.39
2018-06-03T03:37:02.668Z,37.72
2018-06-03T03:38:02.594Z,37.05
2018-06-03T03:39:02.541Z,38.49
2018-06-03T03:40:02.449Z,38.76
2018-06-03T03:41:02.379Z,37.34
2018-06-03T03:42:02.303Z,38.10
2018-06-03T03:43:02.224Z,40.12
2018-06-03T03:44:02.154Z,38.10
2018-06-03T03:45:02.076Z,39.93
2018-06-03T03:46:02.012Z,40.12
2018-06-03T03:47:01.939Z,37.53
2018-06-03T03:48:01.858Z,37.82
2018-06-03T03:49:01.790Z,37.34
2018-06-03T03:50:01.725Z,36.46
2018-06-03T03:51:01.639Z,36.18
2018-06-03T03:52:01.575Z,36.47
2018-06-03T03:53:01.486Z,37.51
2018-06-03T03:54:01.413Z,35.40
2018-06-03T03:55:01.337Z,37.41
2018-06-03T03:56:01.265Z,35.97
2018-06-03T03:57:01.192Z,35.61
2018-06-03T03:58:01.123Z,35.69
2018-06-03T03:59:01.041Z,35.69
2018-06-03T04:00:00.969Z,36.47
2018-06-03T04:01:00.894Z,36.84
2018-06-03T04:02:00.819Z,37.41
2018-06-03T04:03:00.745Z,36.18
2018-06-03T04:04:00.687Z,33.77
2018-06-03T04:05:00.598Z,35.40
2018-06-03T04:06:00.521Z,34.15
2018-06-03T04:07:00.465Z,33.48
2018-06-03T04:08:00.380Z,31.85
2018-06-03T04:09:00.302Z,31.95
2018-06-03T04:10:00.230Z,30.32
2018-06-03T04:11:00.153Z,30.70
2018-06-03T04:12:00.086Z,30.89
2018-06-03T04:13:00.004Z,31.85
2018-06-03T04:13:59.934Z,31.37
2018-06-03T04:14:59.865Z,31.18
2018-06-03T04:15:59.790Z,33.86
2018-06-03T04:16:59.712Z,31.95
2018-06-03T04:17:59.636Z,30.41
2018-06-03T04:18:59.569Z,30.60
2018-06-03T04:19:59.508Z,31.46
2018-06-03T04:20:59.415Z,30.99
2018-06-03T04:21:59.343Z,31.46
2018-06-03T04:22:59.264Z,32.71
2018-06-03T04:23:59.196Z,33.09
2018-06-03T04:24:59.118Z,32.81
2018-06-03T04:25:59.050Z,33.00
2018-06-03T04:26:58.972Z,35.02
2018-06-03T04:27:58.898Z,35.02
2018-06-03T04:28:58.824Z,35.49
2018-06-03T04:29:58.748Z,34.44
2018-06-03T04:30:58.679Z,33.00
2018-06-03T04:31:58.613Z,33.88
2018-06-03T04:32:58.538Z,34.06
2018-06-03T04:33:58.453Z,34.15
2018-06-03T04:34:58.380Z,35.71
2018-06-03T04:35:58.306Z,35.59
2018-06-03T04:36:58.231Z,33.29
2018-06-03T04:37:58.159Z,33.01
2018-06-03T04:38:58.086Z,34.07
2018-06-03T04:39:58.012Z,32.71
2018-06-03T04:40:57.937Z,34.06
2018-06-03T04:41:57.864Z,33.09
2018-06-03T04:42:57.788Z,32.52
2018-06-03T04:43:57.715Z,33.29
2018-06-03T04:44:57.646Z,31.66
2018-06-03T04:45:57.568Z,32.23
2018-06-03T04:46:57.503Z,30.89
2018-06-03T04:47:57.421Z,32.64
2018-06-03T04:48:57.350Z,31.96
2018-06-03T04:49:57.274Z,32.04
2018-06-03T04:50:57.203Z,32.52
2018-06-03T04:51:57.130Z,32.44
2018-06-03T04:52:57.052Z,33.69
2018-06-03T04:53:56.980Z,33.11
2018-06-03T04:54:56.907Z,34.07
2018-06-03T04:55:56.831Z,35.51
2018-06-03T04:56:56.759Z,35.51
2018-06-03T04:57:56.685Z,36.28
2018-06-03T04:58:56.618Z,35.61
2018-06-03T04:59:56.537Z,35.71
2018-06-03T05:00:56.461Z,35.51
2018-06-03T05:01:56.391Z,34.65
2018-06-03T05:02:56.315Z,34.09
2018-06-03T05:03:56.242Z,36.40
2018-06-03T05:04:56.179Z,36.11
2018-06-03T05:05:56.096Z,34.86
2018-06-03T05:06:56.022Z,37.55
2018-06-03T05:07:55.948Z,36.49
2018-06-03T05:08:55.897Z,37.35
2018-06-03T05:09:55.871Z,36.58
2018-06-03T05:10:55.726Z,35.72
2018-06-03T05:11:55.690Z,36.88
2018-06-03T05:12:55.583Z,37.45
2018-06-03T05:13:55.506Z,38.22
2018-06-03T05:14:55.433Z,38.60
2018-06-03T05:15:55.358Z,37.64
2018-06-03T05:16:55.293Z,38.32
2018-06-03T05:17:55.214Z,37.95
2018-06-03T05:18:55.139Z,38.53
2018-06-03T05:19:55.090Z,37.08
2018-06-03T05:20:54.994Z,38.53
2018-06-03T05:21:54.924Z,40.16
2018-06-03T05:22:54.847Z,39.58
2018-06-03T05:23:54.772Z,40.73
2018-06-03T05:24:54.701Z,42.56
2018-06-03T05:25:54.630Z,42.08
2018-06-03T05:26:54.553Z,44.10
2018-06-03T05:27:54.523Z,43.35
2018-06-03T05:28:54.411Z,45.15
2018-06-03T05:29:54.335Z,42.37
2018-06-03T05:30:54.278Z,38.24
2018-06-03T05:31:54.191Z,37.97
2018-06-03T05:32:54.117Z,41.72
2018-06-03T05:33:54.044Z,42.77
2018-06-03T05:34:53.975Z,43.16
2018-06-03T05:35:53.899Z,42.58
2018-06-03T05:36:53.828Z,44.41
2018-06-03T05:37:53.752Z,44.79
2018-06-03T05:38:53.679Z,41.82
2018-06-03T05:39:53.607Z,41.82
2018-06-03T05:40:53.538Z,45.87
2018-06-03T05:41:53.521Z,46.55
2018-06-03T05:42:53.389Z,45.29
2018-06-03T05:43:53.317Z,47.22
2018-06-03T05:44:53.244Z,46.06
2018-06-03T05:45:53.183Z,46.16
2018-06-03T05:46:53.099Z,46.45
2018-06-03T05:47:53.027Z,47.03
2018-06-03T05:48:52.956Z,48.28
2018-06-03T05:49:52.885Z,47.99
2018-06-03T05:50:52.814Z,48.18
2018-06-03T05:51:52.783Z,49.24
2018-06-03T05:52:52.681Z,50.87
2018-06-03T05:53:52.592Z,49.72
2018-06-03T05:54:52.520Z,50.32
2018-06-03T05:55:52.497Z,47.99
2018-06-03T05:56:53.183Z,47.92
2018-06-03T05:57:52.325Z,48.02
2018-06-03T05:58:52.242Z,46.47
2018-06-03T05:59:52.163Z,48.30
2018-06-03T06:00:52.096Z,46.77
2018-06-03T06:01:52.020Z,51.38
2018-06-03T06:02:51.944Z,51.29
2018-06-03T06:03:52.687Z,47.34
2018-06-03T06:04:51.799Z,53.21
2018-06-03T06:05:51.725Z,56.77
2018-06-03T06:06:51.656Z,56.48
2018-06-03T06:07:51.583Z,56.29
2018-06-03T06:08:52.691Z,54.75
2018-06-03T06:09:52.183Z,54.94
2018-06-03T06:10:51.364Z,52.15
2018-06-03T06:11:51.302Z,52.25
2018-06-03T06:12:51.234Z,51.96
2018-06-03T06:13:51.167Z,51.38
2018-06-03T06:14:51.077Z,51.67
2018-06-03T06:15:51.009Z,51.96
2018-06-03T06:16:50.956Z,54.36
2018-06-03T06:17:51.687Z,52.92
2018-06-03T06:18:50.791Z,54.36
2018-06-03T06:19:50.719Z,52.92
2018-06-03T06:20:50.647Z,52.37
2018-06-03T06:21:51.187Z,52.56
2018-06-03T06:22:50.503Z,52.66
2018-06-03T06:23:51.187Z,54.39
2018-06-03T06:24:50.360Z,53.88
2018-06-03T06:25:50.288Z,54.87
2018-06-03T06:26:50.214Z,55.65
2018-06-03T06:27:50.689Z,56.51
2018-06-03T06:28:50.691Z,57.18
2018-06-03T06:29:49.999Z,56.60
2018-06-03T06:30:49.926Z,57.67
2018-06-03T06:31:49.854Z,59.20
2018-06-03T06:32:51.687Z,55.93
2018-06-03T06:33:49.710Z,57.95
2018-06-03T06:34:49.675Z,57.57
2018-06-03T06:35:49.565Z,56.12
2018-06-03T06:36:49.494Z,57.57
2018-06-03T06:37:49.422Z,58.47
2018-06-03T06:38:49.350Z,61.07
2018-06-03T06:39:49.281Z,59.69
2018-06-03T06:40:49.260Z,61.32
2018-06-03T06:41:49.136Z,61.16
2018-06-03T06:42:49.077Z,60.97
2018-06-03T06:43:48.993Z,60.97
2018-06-03T06:44:48.924Z,62.12
2018-06-03T06:45:48.851Z,61.35
2018-06-03T06:46:49.696Z,63.76
2018-06-03T06:47:48.707Z,64.92
2018-06-03T06:48:48.636Z,62.99
2018-06-03T06:49:48.564Z,64.82
2018-06-03T06:50:48.493Z,67.13
2018-06-03T06:51:48.441Z,68.38
2018-06-03T06:52:48.351Z,67.61
2018-06-03T06:53:49.198Z,66.17
2018-06-03T06:54:49.198Z,67.36
2018-06-03T06:55:48.137Z,66.88
2018-06-03T06:56:48.070Z,67.07
2018-06-03T06:57:48.000Z,67.74
2018-06-03T06:58:47.923Z,67.46
2018-06-03T06:59:48.727Z,68.80
2018-06-03T07:00:47.781Z,69.67
2018-06-03T07:01:47.710Z,68.61
2018-06-03T07:02:47.645Z,70.64
2018-06-03T07:03:47.567Z,71.89
2018-06-03T07:04:47.497Z,72.18
2018-06-03T07:05:47.449Z,72.27
2018-06-03T07:06:47.440Z,71.31
2018-06-03T07:07:47.280Z,70.92
2018-06-03T07:08:47.708Z,71.60
2018-06-03T07:09:47.143Z,70.44
2018-06-03T07:10:47.077Z,71.41
2018-06-03T07:11:47.712Z,70.25
2018-06-03T07:12:46.925Z,69.67
2018-06-03T07:13:46.855Z,74.68
2018-06-03T07:14:46.784Z,74.10
2018-06-03T07:15:46.714Z,74.20
2018-06-03T07:16:46.646Z,73.95
2018-06-03T07:17:47.213Z,74.20
2018-06-03T07:18:46.501Z,73.24
2018-06-03T07:19:46.427Z,73.95
2018-06-03T07:20:46.356Z,72.99
2018-06-03T07:21:46.290Z,75.78
2018-06-03T07:22:46.245Z,74.91
2018-06-03T07:23:46.146Z,73.18
2018-06-03T07:24:46.076Z,71.15
2018-06-03T07:25:46.027Z,71.73
2018-06-03T07:26:45.933Z,71.54
2018-06-03T07:27:45.866Z,71.73
2018-06-03T07:28:45.793Z,75.59
2018-06-03T07:29:45.725Z,78.67
2018-06-03T07:30:45.648Z,81.18
2018-06-03T07:31:45.578Z,80.02
2018-06-03T07:32:45.513Z,82.05
2018-06-03T07:33:45.488Z,81.22
2018-06-03T07:34:45.364Z,80.51
2018-06-03T07:35:45.295Z,83.05
2018-06-03T07:36:45.224Z,79.97
2018-06-03T07:37:45.152Z,79.00
2018-06-03T07:38:45.083Z,78.03
2018-06-03T07:39:45.054Z,79.00
2018-06-03T07:40:44.942Z,78.23
2018-06-03T07:41:44.910Z,79.00
2018-06-03T07:42:44.799Z,79.68
2018-06-03T07:43:44.836Z,80.00
2018-06-03T07:44:44.667Z,80.68
2018-06-03T07:45:44.587Z,81.55
2018-06-03T07:46:44.515Z,80.58
2018-06-03T07:47:44.448Z,80.68
2018-06-03T07:48:44.381Z,85.12
2018-06-03T07:49:44.310Z,85.80
2018-06-03T07:50:44.238Z,87.15
2018-06-03T07:51:44.184Z,87.73
2018-06-03T07:52:44.094Z,87.53
2018-06-03T07:53:44.026Z,86.86
2018-06-03T07:54:43.952Z,87.92
2018-06-03T07:55:43.879Z,85.89
2018-06-03T07:56:43.809Z,85.60
2018-06-03T07:57:43.739Z,84.74
2018-06-03T07:58:43.680Z,88.02
2018-06-03T07:59:43.595Z,88.02
2018-06-03T08:00:43.525Z,87.92
2018-06-03T08:01:43.457Z,88.31
2018-06-03T08:02:43.384Z,89.17
2018-06-03T08:03:43.316Z,86.76
2018-06-03T08:04:43.240Z,87.15
2018-06-03T08:05:43.172Z,89.07
2018-06-03T08:06:43.100Z,84.97
2018-06-03T08:07:43.030Z,89.99
2018-06-03T08:08:42.961Z,89.22
2018-06-03T08:09:42.902Z,88.25
2018-06-03T08:10:42.818Z,87.58
2018-06-03T08:11:42.761Z,88.93
2018-06-03T08:12:42.677Z,90.09
2018-06-03T08:13:42.659Z,90.77
2018-06-03T08:14:42.541Z,89.31
2018-06-03T08:15:42.467Z,89.03
2018-06-03T08:16:42.397Z,91.35
2018-06-03T08:17:42.421Z,92.98
2018-06-03T08:18:42.254Z,93.56
2018-06-03T08:19:42.191Z,93.56
2018-06-03T08:20:42.115Z,93.47
2018-06-03T08:21:42.044Z,93.32
2018-06-03T08:22:41.978Z,90.19
2018-06-03T08:23:41.904Z,88.78
2018-06-03T08:24:41.845Z,89.45
2018-06-03T08:25:41.762Z,91.19
2018-06-03T08:26:41.692Z,90.03
2018-06-03T08:27:41.622Z,93.32
2018-06-03T08:28:41.554Z,90.23
2018-06-03T08:29:41.483Z,99.99
2018-06-03T08:30:41.411Z,99.99
2018-06-03T08:31:41.339Z,99.89
2018-06-03T08:32:41.269Z,98.83
2018-06-03T08:33:41.198Z,98.35
2018-06-03T08:34:41.130Z,99.99
2018-06-03T08:35:41.059Z,99.21
2018-06-03T08:36:41.027Z,97.86
2018-06-03T08:37:40.918Z,99.31
2018-06-03T08:38:40.847Z,99.99
2018-06-03T08:39:40.783Z,99.02
2018-06-03T08:40:40.708Z,98.15
2018-06-03T08:41:40.638Z,93.80
2018-06-03T08:42:40.566Z,96.51
2018-06-03T08:43:40.497Z,94.67
2018-06-03T08:44:40.433Z,94.19
2018-06-03T08:45:40.356Z,93.23
2018-06-03T08:46:40.286Z,96.70
2018-06-03T08:47:40.216Z,99.99
2018-06-03T08:48:40.147Z,98.58
2018-06-03T08:49:40.076Z,98.73
2018-06-03T08:50:40.007Z,98.49
2018-06-03T08:51:39.941Z,97.23
2018-06-03T08:52:39.908Z,98.00
2018-06-03T08:53:39.797Z,99.99
2018-06-03T08:54:39.725Z,99.99
2018-06-03T08:55:39.712Z,99.99
2018-06-03T08:56:39.587Z,99.07
2018-06-03T08:57:39.520Z,98.39
2018-06-03T08:58:39.510Z,98.78
2018-06-03T08:59:39.375Z,98.39
2018-06-03T09:00:39.371Z,99.99
2018-06-03T09:01:39.246Z,99.99
2018-06-03T09:02:39.169Z,99.99
2018-06-03T09:03:39.097Z,99.65
2018-06-03T09:04:39.027Z,96.51
2018-06-03T09:05:38.956Z,96.51
2018-06-03T09:06:38.885Z,96.89
2018-06-03T09:07:38.823Z,97.96
2018-06-03T09:08:38.749Z,99.99
2018-06-03T09:09:38.675Z,99.99
2018-06-03T09:10:38.610Z,99.99
2018-06-03T09:11:38.543Z,99.99
2018-06-03T09:12:38.472Z,99.99
2018-06-03T09:13:38.398Z,99.99
2018-06-03T09:14:38.333Z,99.99
2018-06-03T09:15:38.287Z,99.94
2018-06-03T09:16:38.199Z,99.84
2018-06-03T09:17:38.146Z,99.99
2018-06-03T09:18:38.050Z,99.99
2018-06-03T09:19:37.983Z,98.49
2018-06-03T09:20:37.915Z,99.99
2018-06-03T09:21:37.840Z,98.30
2018-06-03T09:22:37.776Z,99.99
2018-06-03T09:23:37.705Z,99.99
2018-06-03T09:24:37.635Z,99.99
2018-06-03T09:25:37.564Z,99.99
2018-06-03T09:26:37.494Z,99.99
2018-06-03T09:27:37.425Z,99.99
2018-06-03T09:28:37.359Z,99.99
2018-06-03T09:29:37.292Z,99.99
2018-06-03T09:30:37.221Z,99.99
2018-06-03T09:31:37.154Z,99.99
2018-06-03T09:32:37.080Z,98.93
2018-06-03T09:33:37.012Z,99.99
2018-06-03T09:34:36.969Z,99.99
2018-06-03T09:35:36.874Z,96.36
2018-06-03T09:36:36.804Z,96.94
2018-06-03T09:37:36.743Z,96.55
2018-06-03T09:38:36.668Z,99.99
2018-06-03T09:39:36.605Z,99.99
2018-06-03T09:40:36.530Z,99.17
2018-06-03T09:41:36.461Z,99.55
2018-06-03T09:42:36.390Z,83.48
2018-06-03T09:43:36.321Z,88.03
2018-06-03T09:44:36.278Z,93.07
2018-06-03T09:45:36.188Z,91.61
2018-06-03T09:46:36.116Z,93.94
2018-06-03T09:47:36.049Z,97.38
2018-06-03T09:48:35.981Z,91.08
2018-06-03T09:49:35.911Z,93.88
2018-06-03T09:50:35.841Z,88.75
2018-06-03T09:51:35.775Z,89.43
2018-06-03T09:52:35.704Z,83.91
2018-06-03T09:53:35.639Z,85.55
2018-06-03T09:54:35.569Z,93.88
2018-06-03T09:55:35.500Z,97.18
2018-06-03T09:56:35.434Z,99.70
2018-06-03T09:57:35.363Z,99.60
2018-06-03T09:58:35.294Z,99.27
2018-06-03T09:59:35.239Z,98.97
2018-06-03T10:00:35.159Z,94.81
2018-06-03T10:01:35.089Z,98.00
2018-06-03T10:02:35.021Z,93.93
2018-06-03T10:03:34.952Z,94.42
2018-06-03T10:04:34.885Z,93.93
2018-06-03T10:05:34.825Z,92.86
2018-06-03T10:06:34.748Z,87.54
2018-06-03T10:07:34.679Z,84.14
2018-06-03T10:08:34.616Z,94.90
2018-06-03T10:09:34.553Z,93.26
2018-06-03T10:10:34.474Z,96.94
2018-06-03T10:11:34.409Z,94.32
2018-06-03T10:12:34.338Z,83.56
2018-06-03T10:13:34.280Z,89.61
2018-06-03T10:14:34.225Z,87.92
2018-06-03T10:15:34.134Z,87.63
2018-06-03T10:16:34.067Z,83.85
2018-06-03T10:17:33.999Z,80.55
2018-06-03T10:18:33.931Z,77.26
2018-06-03T10:19:33.874Z,74.26
2018-06-03T10:20:33.805Z,74.16
2018-06-03T10:21:33.771Z,75.13
2018-06-03T10:22:33.658Z,72.22
2018-06-03T10:23:33.590Z,75.61
2018-06-03T10:24:33.523Z,79.30
2018-06-03T10:25:33.453Z,77.75
2018-06-03T10:26:33.389Z,77.65
2018-06-03T10:27:33.317Z,73.77
2018-06-03T10:28:33.254Z,73.09
2018-06-03T10:29:33.182Z,83.27
2018-06-03T10:30:33.115Z,77.75
2018-06-03T10:31:33.053Z,78.91
2018-06-03T10:32:32.985Z,79.58
2018-06-03T10:33:32.914Z,90.83
2018-06-03T10:34:32.843Z,85.89
2018-06-03T10:35:32.776Z,80.46
2018-06-03T10:36:32.708Z,86.99
2018-06-03T10:37:32.641Z,87.09
2018-06-03T10:38:32.570Z,78.85
2018-06-03T10:39:32.502Z,68.47
2018-06-03T10:40:32.434Z,60.91
2018-06-03T10:41:32.368Z,61.39
2018-06-03T10:42:32.299Z,62.75
2018-06-03T10:43:32.234Z,64.30
2018-06-03T10:44:32.166Z,61.98
2018-06-03T10:45:32.098Z,71.19
2018-06-03T10:46:32.027Z,71.80
2018-06-03T10:47:31.960Z,73.74
2018-06-03T10:48:31.893Z,64.43
2018-06-03T10:49:31.829Z,74.46
2018-06-03T10:50:31.756Z,80.77
2018-06-03T10:51:31.689Z,81.65
2018-06-03T10:52:31.629Z,82.71
2018-06-03T10:53:31.555Z,81.01
2018-06-03T10:54:31.518Z,79.35
2018-06-03T10:55:31.420Z,77.51
2018-06-03T10:56:31.352Z,81.30
2018-06-03T10:57:31.284Z,74.98
2018-06-03T10:58:31.215Z,76.05
2018-06-03T10:59:31.161Z,70.71
2018-06-03T11:00:31.084Z,59.61
2018-06-03T11:01:31.018Z,62.04
2018-06-03T11:02:30.949Z,62.01
2018-06-03T11:03:30.884Z,64.17
2018-06-03T11:04:30.833Z,70.19
2018-06-03T11:05:30.778Z,71.26
2018-06-03T11:06:30.678Z,69.80
2018-06-03T11:07:30.614Z,76.01
2018-06-03T11:08:30.549Z,80.48
2018-06-03T11:09:30.477Z,74.75
2018-06-03T11:10:30.409Z,64.20
2018-06-03T11:11:30.342Z,58.86
2018-06-03T11:12:30.274Z,62.74
2018-06-03T11:13:30.222Z,58.18
2018-06-03T11:14:30.153Z,53.91
2018-06-03T11:15:30.073Z,57.31
2018-06-03T11:16:30.013Z,58.18
2018-06-03T11:17:29.943Z,55.17
2018-06-03T11:18:29.875Z,58.76
2018-06-03T11:19:29.804Z,59.05
2018-06-03T11:20:29.739Z,61.68
2018-06-03T11:21:29.671Z,56.52
2018-06-03T11:22:29.611Z,54.49
2018-06-03T11:23:29.535Z,59.92
2018-06-03T11:24:29.468Z,57.31
2018-06-03T11:25:29.401Z,56.24
2018-06-03T11:26:29.340Z,53.32
2018-06-03T11:27:29.276Z,59.28
2018-06-03T11:28:29.201Z,56.65
2018-06-03T11:29:29.132Z,65.59
2018-06-03T11:30:29.063Z,72.01
2018-06-03T11:31:29.012Z,71.33
2018-06-03T11:32:28.931Z,71.33
2018-06-03T11:33:28.866Z,66.56
2018-06-03T11:34:28.799Z,64.91
2018-06-03T11:35:28.736Z,63.87
2018-06-03T11:36:28.663Z,67.67
2018-06-03T11:37:28.597Z,66.99
2018-06-03T11:38:28.529Z,70.39
2018-06-03T11:39:28.465Z,68.93
2018-06-03T11:40:28.405Z,64.17
2018-06-03T11:41:28.330Z,56.61
2018-06-03T11:42:28.263Z,58.17
2018-06-03T11:43:28.202Z,62.13
2018-06-03T11:44:28.130Z,59.92
2018-06-03T11:45:28.135Z,61.96
2018-06-03T11:46:28.010Z,62.93
2018-06-03T11:47:27.935Z,60.89
2018-06-03T11:48:27.873Z,67.02
2018-06-03T11:49:27.795Z,66.63
2018-06-03T11:50:27.727Z,60.89
2018-06-03T11:51:27.717Z,61.51
2018-06-03T11:52:27.600Z,51.48
2018-06-03T11:53:27.528Z,54.21
2018-06-03T11:54:27.470Z,51.48
2018-06-03T11:55:27.395Z,49.83
2018-06-03T11:56:27.330Z,50.90
2018-06-03T11:57:27.263Z,50.02
2018-06-03T11:58:27.195Z,48.36
2018-06-03T11:59:27.129Z,50.02
2018-06-03T12:00:27.069Z,50.90
2018-06-03T12:01:27.001Z,52.19
2018-06-03T12:02:26.930Z,53.65
2018-06-03T12:03:26.863Z,56.96
2018-06-03T12:04:26.798Z,57.09
2018-06-03T12:05:26.739Z,58.15
2018-06-03T12:06:26.664Z,55.60
2018-06-03T12:07:26.602Z,53.85
2018-06-03T12:08:26.537Z,52.28
2018-06-03T12:09:26.472Z,53.36
2018-06-03T12:10:26.403Z,53.14
2018-06-03T12:11:26.336Z,54.40
2018-06-03T12:12:26.269Z,54.60
2018-06-03T12:13:26.202Z,55.57
2018-06-03T12:14:26.151Z,56.15
2018-06-03T12:15:26.085Z,55.66
2018-06-03T12:16:26.002Z,56.90
2018-06-03T12:17:25.936Z,54.57
2018-06-03T12:18:25.876Z,54.50
2018-06-03T12:19:25.804Z,56.41
2018-06-03T12:20:25.738Z,56.54
2018-06-03T12:21:25.671Z,53.62
2018-06-03T12:22:25.609Z,65.43
2018-06-03T12:23:25.538Z,65.04
2018-06-03T12:24:25.477Z,54.91
2018-06-03T12:25:25.417Z,59.00
2018-06-03T12:26:25.341Z,55.99
2018-06-03T12:27:25.295Z,53.85
2018-06-03T12:28:25.221Z,52.19
2018-06-03T12:29:25.140Z,53.45
2018-06-03T12:30:25.075Z,50.04
2018-06-03T12:31:25.009Z,56.47
2018-06-03T12:32:24.948Z,57.47
2018-06-03T12:33:24.878Z,54.85
2018-06-03T12:34:24.810Z,53.87
2018-06-03T12:35:24.744Z,48.61
2018-06-03T12:36:24.694Z,48.34
2018-06-03T12:37:24.613Z,47.17
2018-06-03T12:38:24.548Z,44.93
2018-06-03T12:39:24.481Z,52.73
2018-06-03T12:40:24.423Z,56.72
2018-06-03T12:41:24.354Z,53.31
2018-06-03T12:42:24.288Z,51.29
2018-06-03T12:43:24.229Z,52.36
2018-06-03T12:44:24.152Z,51.87
2018-06-03T12:45:24.087Z,49.85
2018-06-03T12:46:24.037Z,48.56
2018-06-03T12:47:23.957Z,43.90
2018-06-03T12:48:23.900Z,40.95
2018-06-03T12:49:23.825Z,39.59
2018-06-03T12:50:23.762Z,40.17
2018-06-03T12:51:23.694Z,39.78